createdAt,value
2022-12-01T00:03:00.573Z,98696.81
2022-12-01T00:06:07.683Z,98692.63
2022-12-01T00:09:33.816Z,98700.25
2022-12-01T00:12:43.508Z,98692.59
2022-12-01T00:15:51.708Z,98686.69
2022-12-01T00:19:01.763Z,98684.13
2022-12-01T00:22:05.291Z,98690.94
2022-12-01T00:25:16.170Z,98684.06
2022-12-01T00:28:20.297Z,98685.84
2022-12-01T00:31:31.879Z,98690.09
2022-12-01T00:34:40.828Z,98692.66
2022-12-01T00:37:47.795Z,98696.94
2022-12-01T00:41:07.143Z,98700.31
2022-12-01T00:44:16.139Z,98692.66
2022-12-01T00:47:21.139Z,98698.53
2022-12-01T00:50:27.357Z,98703.66
2022-12-01T00:53:33.790Z,98707.97
2022-12-01T00:56:44.161Z,98702.75
2022-12-01T00:59:54.789Z,98707.09
2022-12-01T01:02:58.839Z,98700.31
2022-12-01T01:06:06.997Z,98707.97
2022-12-01T01:09:13.151Z,98705.28
2022-12-01T01:12:23.709Z,98704.56
2022-12-01T01:15:28.608Z,98703.63
2022-12-01T01:18:37.216Z,98707.13
2022-12-01T01:21:42.195Z,98713.94
2022-12-01T01:24:54.022Z,98697.75
2022-12-01T01:28:06.493Z,98701.88
2022-12-01T01:31:11.816Z,98710.38
2022-12-01T01:34:18.578Z,98709.63
2022-12-01T01:37:22.086Z,98707.13
2022-12-01T01:40:27.397Z,98716.47
2022-12-01T01:43:47.684Z,98712.16
2022-12-01T01:46:51.893Z,98713.88
2022-12-01T01:50:05.882Z,98708.53
2022-12-01T01:53:16.612Z,98718.88
2022-12-01T01:56:20.641Z,98724.84
2022-12-01T01:59:30.926Z,98722.44
2022-12-01T02:02:40.884Z,98715.63
2022-12-01T02:05:45.558Z,98720.44
2022-12-01T02:08:49.235Z,98720.69
2022-12-01T02:12:11.376Z,98719.91
2022-12-01T02:15:26.104Z,98707.97
2022-12-01T02:18:39.496Z,98709.66
2022-12-01T02:22:04.126Z,98711.16
2022-12-01T02:25:25.808Z,98713.06
2022-12-01T02:29:05.660Z,98711.38
2022-12-01T02:32:16.916Z,98719.84
2022-12-01T02:35:33.636Z,98701.97
2022-12-01T02:38:41.149Z,98707.09
2022-12-01T02:41:58.485Z,98712.13
2022-12-01T02:45:06.672Z,98701.09
2022-12-01T02:48:23.713Z,98698.50
2022-12-01T02:51:32.055Z,98705.31
2022-12-01T02:54:36.766Z,98704.09
2022-12-01T02:57:41.941Z,98695.13
2022-12-01T03:01:08.139Z,98676.34
2022-12-01T03:04:31.144Z,98683.25
2022-12-01T03:07:58.572Z,98679.75
2022-12-01T03:11:09.150Z,98683.94
2022-12-01T03:14:26.534Z,98688.19
2022-12-01T03:17:38.900Z,98686.53
2022-12-01T03:20:59.519Z,98674.78
2022-12-01T03:24:07.967Z,98688.34
2022-12-01T03:27:18.796Z,98687.50
2022-12-01T03:30:24.381Z,98680.66
2022-12-01T03:33:33.065Z,98680.69
2022-12-01T03:36:58.584Z,98681.56
2022-12-01T03:40:08.926Z,98678.13
2022-12-01T03:43:17.687Z,98680.69
2022-12-01T03:46:34.598Z,98640.75
2022-12-01T03:49:38.723Z,98693.44
2022-12-01T03:52:50.501Z,98684.97
2022-12-01T03:56:01.648Z,98687.53
2022-12-01T03:59:09.807Z,98694.97
2022-12-01T04:02:13.201Z,98691.66
2022-12-01T04:05:25.188Z,98693.81
2022-12-01T04:08:31.316Z,98691.16
2022-12-01T04:11:56.789Z,98687.47
2022-12-01T04:15:10.200Z,98681.56
2022-12-01T04:18:18.393Z,98681.59
2022-12-01T04:21:22.090Z,98686.69
2022-12-01T04:24:36.073Z,98681.59
2022-12-01T04:27:39.483Z,98682.44
2022-12-01T04:30:42.983Z,98682.41
2022-12-01T04:34:57.639Z,98681.19
2022-12-01T04:38:03.983Z,98685.59
2022-12-01T04:41:14.064Z,98681.59
2022-12-01T04:44:23.559Z,98673.94
2022-12-01T04:47:28.185Z,98673.06
2022-12-01T04:50:33.612Z,98678.19
2022-12-01T04:53:38.191Z,98687.31
2022-12-01T04:56:49.916Z,98685.00
2022-12-01T04:59:55.086Z,98683.28
2022-12-01T05:03:01.760Z,98685.84
2022-12-01T05:06:16.892Z,98686.53
2022-12-01T05:09:23.489Z,98689.25
2022-12-01T05:12:29.709Z,98683.13
2022-12-01T05:15:35.202Z,98674.78
2022-12-01T05:18:39.671Z,98618.59
2022-12-01T05:21:51.676Z,98688.38
2022-12-01T05:25:02.952Z,98673.06
2022-12-01T05:28:13.410Z,98684.94
2022-12-01T05:31:26.810Z,98683.25
2022-12-01T05:34:32.169Z,98673.84
2022-12-01T05:37:39.518Z,98669.63
2022-12-01T05:41:01.654Z,98674.72
2022-12-01T05:44:05.850Z,98673.88
2022-12-01T05:47:09.375Z,98672.94
2022-12-01T05:50:22.579Z,98676.41
2022-12-01T05:53:29.337Z,98675.53
2022-12-01T05:56:37.620Z,98668.72
2022-12-01T05:59:42.791Z,98667.88
2022-12-01T06:02:47.259Z,98675.34
2022-12-01T06:05:54.516Z,98646.56
2022-12-01T06:09:01.750Z,98666.97
2022-12-01T06:12:08.361Z,98666.13
2022-12-01T06:15:15.191Z,98671.09
2022-12-01T06:18:21.057Z,98666.97
2022-12-01T06:21:24.832Z,98653.41
2022-12-01T06:24:29.406Z,98675.53
2022-12-01T06:27:36.619Z,98605.84
2022-12-01T06:30:42.677Z,98686.59
2022-12-01T06:33:49.947Z,98683.13
2022-12-01T06:36:53.761Z,98689.22
2022-12-01T06:40:06.856Z,98669.53
2022-12-01T06:43:15.644Z,98681.50
2022-12-01T06:46:19.856Z,98687.53
2022-12-01T06:49:23.349Z,98694.31
2022-12-01T06:52:26.585Z,98689.22
2022-12-01T06:55:31.331Z,98702.00
2022-12-01T06:58:35.176Z,98701.84
2022-12-01T07:01:39.163Z,98695.97
2022-12-01T07:04:42.592Z,98701.00
2022-12-01T07:07:46.678Z,98701.88
2022-12-01T07:11:00.774Z,98691.50
2022-12-01T07:14:07.119Z,98697.75
2022-12-01T07:17:10.779Z,98699.41
2022-12-01T07:20:14.423Z,98698.56
2022-12-01T07:23:18.038Z,98702.72
2022-12-01T07:26:24.058Z,98704.44
2022-12-01T07:29:27.855Z,98708.75
2022-12-01T07:32:31.667Z,98708.66
2022-12-01T07:35:35.258Z,98715.59
2022-12-01T07:38:41.289Z,98712.03
2022-12-01T07:41:46.063Z,98707.88
2022-12-01T07:44:55.822Z,98659.38
2022-12-01T07:48:01.783Z,98711.91
2022-12-01T07:51:06.027Z,98718.88
2022-12-01T07:54:14.260Z,98711.19
2022-12-01T07:57:20.437Z,98713.03
2022-12-01T08:00:24.238Z,98712.03
2022-12-01T08:03:27.591Z,98713.78
2022-12-01T08:06:31.678Z,98708.66
2022-12-01T08:09:35.025Z,98713.75
2022-12-01T08:12:45.023Z,98711.13
2022-12-01T08:15:55.189Z,98696.75
2022-12-01T08:18:59.843Z,98716.19
2022-12-01T08:22:03.534Z,98713.59
2022-12-01T08:25:10.934Z,98704.34
2022-12-01T08:28:21.907Z,98711.94
2022-12-01T08:31:33.033Z,98709.56
2022-12-01T08:34:55.393Z,98709.41
2022-12-01T08:38:04.097Z,98701.78
2022-12-01T08:41:23.559Z,98714.53
2022-12-01T08:44:52.070Z,98704.06
2022-12-01T08:51:39.904Z,98688.03
2022-12-01T08:54:50.306Z,98705.03
2022-12-01T08:58:12.259Z,98717.03
2022-12-01T09:01:33.697Z,98705.81
2022-12-01T09:04:42.657Z,98718.66
2022-12-01T09:11:49.634Z,98714.34
2022-12-01T09:15:01.508Z,98715.03
2022-12-01T09:18:08.666Z,98716.91
2022-12-01T09:21:35.527Z,98715.78
2022-12-01T09:24:42.019Z,98717.63
2022-12-01T09:27:50.225Z,98713.88
2022-12-01T09:30:55.837Z,98715.56
2022-12-01T09:34:50.957Z,98721.78
2022-12-01T09:38:00.666Z,98709.47
2022-12-01T09:41:10.509Z,98710.53
2022-12-01T09:44:41.790Z,98707.09
2022-12-01T09:47:46.738Z,98702.66
2022-12-01T09:50:57.764Z,98701.25
2022-12-01T09:54:16.259Z,98704.19
2022-12-01T09:57:33.818Z,98694.16
2022-12-01T10:00:49.572Z,98679.91
2022-12-01T10:04:09.603Z,98693.56
2022-12-01T10:07:23.794Z,98676.47
2022-12-01T10:10:32.862Z,98684.59
2022-12-01T10:13:38.716Z,98674.59
2022-12-01T10:16:52.443Z,98675.50
2022-12-01T10:20:11.656Z,98673.66
2022-12-01T10:23:51.906Z,98664.75
2022-12-01T10:27:01.315Z,98664.78
2022-12-01T10:30:12.068Z,98656.19
2022-12-01T10:34:56.661Z,98644.28
2022-12-01T10:38:06.416Z,98627.09
2022-12-01T10:41:38.633Z,98641.25
2022-12-01T10:44:53.485Z,98574.91
2022-12-01T10:48:15.882Z,98637.09
2022-12-01T10:51:30.324Z,98642.28
2022-12-01T10:54:57.308Z,98627.72
2022-12-01T10:58:21.862Z,98628.16
2022-12-01T11:01:44.522Z,98641.25
2022-12-01T11:05:10.572Z,98637.66
2022-12-01T11:08:49.453Z,98625.66
2022-12-01T11:12:03.954Z,98635.97
2022-12-01T11:15:22.958Z,98637.72
2022-12-01T11:18:38.148Z,98616.97
2022-12-01T11:21:47.108Z,98621.84
2022-12-01T11:25:27.785Z,98593.28
2022-12-01T11:29:07.398Z,98621.91
2022-12-01T11:32:32.405Z,98619.25
2022-12-01T11:35:50.623Z,98609.19
2022-12-01T11:39:25.544Z,98619.56
2022-12-01T11:42:41.594Z,98609.72
2022-12-01T11:46:05.003Z,98604.63
2022-12-01T11:49:22.638Z,98608.16
2022-12-01T11:52:31.623Z,98607.75
2022-12-01T11:55:44.929Z,98577.06
2022-12-01T11:59:11.332Z,98601.34
2022-12-01T12:02:43.663Z,98564.16
2022-12-01T12:06:39.452Z,98597.69
2022-12-01T12:10:30.442Z,98598.00
2022-12-01T12:14:05.533Z,98595.84
2022-12-01T12:17:31.608Z,98587.78
2022-12-01T12:20:55.642Z,98581.34
2022-12-01T12:24:40.931Z,98590.63
2022-12-01T12:28:06.277Z,98582.03
2022-12-01T12:31:30.651Z,98571.09
2022-12-01T12:34:54.578Z,98567.25
2022-12-01T12:38:19.242Z,98566.19
2022-12-01T12:42:01.013Z,98524.06
2022-12-01T12:45:25.622Z,98565.53
2022-12-01T12:52:33.878Z,98550.78
2022-12-01T12:55:52.653Z,98553.97
2022-12-01T12:59:15.155Z,98555.72
2022-12-01T13:02:42.357Z,98555.91
2022-12-01T13:05:59.087Z,98536.28
2022-12-01T13:09:08.473Z,98559.63
2022-12-01T13:12:38.934Z,98556.66
2022-12-01T13:15:44.669Z,98550.59
2022-12-01T13:19:07.479Z,98550.84
2022-12-01T13:22:29.784Z,98544.69
2022-12-01T13:25:47.768Z,98533.50
2022-12-01T13:28:55.077Z,98542.47
2022-12-01T13:32:12.948Z,98544.00
2022-12-01T13:35:27.573Z,98550.09
2022-12-01T13:38:37.786Z,98550.09
2022-12-01T13:42:00.281Z,98546.63
2022-12-01T13:45:28.418Z,98538.72
2022-12-01T13:48:57.819Z,98534.78
2022-12-01T13:52:35.578Z,98537.34
2022-12-01T13:56:07.208Z,98545.69
2022-12-01T13:59:44.453Z,98528.78
2022-12-01T14:03:07.339Z,98534.59
2022-12-01T14:06:26.290Z,98536.66
2022-12-01T14:09:53.109Z,98526.50
2022-12-01T14:13:07.808Z,98525.66
2022-12-01T14:16:16.282Z,98532.44
2022-12-01T14:20:06.520Z,98531.75
2022-12-01T14:23:20.925Z,98535.75
2022-12-01T14:26:33.194Z,98533.31
2022-12-01T14:29:48.434Z,98535.72
2022-12-01T14:33:01.516Z,98535.34
2022-12-01T14:36:17.315Z,98539.09
2022-12-01T14:39:34.230Z,98538.16
2022-12-01T14:43:04.278Z,98540.53
2022-12-01T14:46:16.639Z,98536.00
2022-12-01T14:49:28.181Z,98530.00
2022-12-01T14:52:38.481Z,98530.81
2022-12-01T14:56:03.076Z,98534.84
2022-12-01T14:59:25.455Z,98538.91
2022-12-01T15:02:44.186Z,98531.75
2022-12-01T15:05:48.434Z,98535.81
2022-12-01T15:09:36.504Z,98541.34
2022-12-01T15:12:43.299Z,98529.94
2022-12-01T15:15:52.705Z,98530.13
2022-12-01T15:19:13.750Z,98534.72
2022-12-01T15:22:21.399Z,98531.53
2022-12-01T15:25:35.302Z,98529.72
2022-12-01T15:28:48.383Z,98534.06
2022-12-01T15:32:00.321Z,98530.06
2022-12-01T15:35:27.591Z,98534.72
2022-12-01T15:38:36.389Z,98539.78
2022-12-01T15:41:46.166Z,98545.13
2022-12-01T15:45:18.640Z,98539.47
2022-12-01T15:48:35.060Z,98539.66
2022-12-01T15:51:44.844Z,98537.44
2022-12-01T15:58:27.962Z,98540.50
2022-12-01T16:01:39.834Z,98546.91
2022-12-01T16:04:47.401Z,98549.56
2022-12-01T16:08:23.783Z,98552.03
2022-12-01T16:11:34.031Z,98558.25
2022-12-01T16:14:53.944Z,98547.44
2022-12-01T16:18:12.211Z,98550.59
2022-12-01T16:21:18.622Z,98549.50
2022-12-01T16:24:47.460Z,98546.22
2022-12-01T16:28:12.912Z,98545.84
2022-12-01T16:34:56.283Z,98543.25
2022-12-01T16:37:59.987Z,98502.69
2022-12-01T16:41:16.889Z,98544.22
2022-12-01T16:44:29.120Z,98542.72
2022-12-01T16:47:42.170Z,98547.56
2022-12-01T16:50:57.608Z,98535.13
2022-12-01T16:54:06.807Z,98539.41
2022-12-01T16:57:16.657Z,98552.38
2022-12-01T17:00:27.450Z,98543.75
2022-12-01T17:03:31.306Z,98549.44
2022-12-01T17:06:38.429Z,98520.06
2022-12-01T17:09:41.760Z,98560.41
2022-12-01T17:12:46.340Z,98530.69
2022-12-01T17:15:52.825Z,98556.31
2022-12-01T17:18:56.445Z,98563.28
2022-12-01T17:22:03.211Z,98556.44
2022-12-01T17:25:12.055Z,98558.97
2022-12-01T17:28:15.455Z,98551.34
2022-12-01T17:31:21.350Z,98552.84
2022-12-01T17:34:36.098Z,98549.25
2022-12-01T17:37:51.491Z,98550.06
2022-12-01T17:41:14.363Z,98552.84
2022-12-01T17:44:18.820Z,98551.25
2022-12-01T17:47:24.814Z,98555.69
2022-12-01T17:50:30.654Z,98557.47
2022-12-01T17:53:39.417Z,98553.38
2022-12-01T17:56:43.809Z,98558.50
2022-12-01T17:59:47.458Z,98572.84
2022-12-01T18:02:51.659Z,98539.91
2022-12-01T18:05:57.459Z,98578.56
2022-12-01T18:09:02.148Z,98577.66
2022-12-01T18:12:06.210Z,98593.53
2022-12-01T18:15:10.754Z,98587.16
2022-12-01T18:18:14.403Z,98595.00
2022-12-01T18:21:19.692Z,98604.19
2022-12-01T18:24:24.571Z,98610.50
2022-12-01T18:27:29.898Z,98608.75
2022-12-01T18:30:38.473Z,98579.53
2022-12-01T18:33:43.607Z,98617.47
2022-12-01T18:36:47.118Z,98623.31
2022-12-01T18:39:52.780Z,98617.44
2022-12-01T18:42:56.793Z,98620.13
2022-12-01T18:46:01.550Z,98596.13
2022-12-01T18:49:07.065Z,98615.91
2022-12-01T18:52:11.815Z,98614.03
2022-12-01T18:55:16.744Z,98608.34
2022-12-01T18:58:21.423Z,98618.56
2022-12-01T19:01:30.532Z,98615.25
2022-12-01T19:04:36.545Z,98610.19
2022-12-01T19:07:40.008Z,98613.66
2022-12-01T19:10:45.051Z,98613.72
2022-12-01T19:13:49.061Z,98616.22
2022-12-01T19:16:53.070Z,98615.72
2022-12-01T19:19:56.921Z,98627.06
2022-12-01T19:23:02.108Z,98618.06
2022-12-01T19:26:08.416Z,98606.09
2022-12-01T19:29:12.342Z,98615.38
2022-12-01T19:32:15.770Z,98606.84
2022-12-01T19:35:19.556Z,98602.44
2022-12-01T19:38:23.012Z,98598.88
2022-12-01T19:41:28.827Z,98603.31
2022-12-01T19:44:32.278Z,98592.31
2022-12-01T19:47:36.546Z,98598.13
2022-12-01T19:50:39.991Z,98605.88
2022-12-01T19:53:43.356Z,98606.00
2022-12-01T19:56:50.973Z,98603.88
2022-12-01T19:59:54.696Z,98612.84
2022-12-01T20:03:00.308Z,98606.81
2022-12-01T20:06:05.005Z,98586.50
2022-12-01T20:09:10.480Z,98611.28
2022-12-01T20:12:16.304Z,98609.75
2022-12-01T20:15:23.127Z,98619.88
2022-12-01T20:18:26.461Z,98598.22
2022-12-01T20:21:31.794Z,98612.19
2022-12-01T20:24:36.026Z,98596.19
2022-12-01T20:27:42.327Z,98621.38
2022-12-01T20:30:46.016Z,98618.28
2022-12-01T20:33:50.372Z,98616.25
2022-12-01T20:36:54.711Z,98595.19
2022-12-01T20:39:58.064Z,98616.72
2022-12-01T20:43:03.166Z,98607.03
2022-12-01T20:46:08.320Z,98607.66
2022-12-01T20:49:12.565Z,98592.47
2022-12-01T20:52:16.493Z,98600.13
2022-12-01T20:55:24.451Z,98612.94
2022-12-01T20:58:32.058Z,98609.47
2022-12-01T21:01:39.640Z,98603.34
2022-12-01T21:04:42.969Z,98609.34
2022-12-01T21:07:46.761Z,98611.28
2022-12-01T21:10:50.616Z,98610.06
2022-12-01T21:13:54.523Z,98601.91
2022-12-01T21:17:03.430Z,98598.97
2022-12-01T21:20:21.345Z,98596.78
2022-12-01T21:23:29.152Z,98601.00
2022-12-01T21:26:32.652Z,98602.16
2022-12-01T21:29:40.460Z,98600.69
2022-12-01T21:32:45.254Z,98601.91
2022-12-01T21:35:51.175Z,98592.66
2022-12-01T21:38:57.793Z,98600.16
2022-12-01T21:42:30.325Z,98602.16
2022-12-01T21:45:34.972Z,98605.56
2022-12-01T21:48:38.377Z,98600.38
2022-12-01T21:51:42.026Z,98597.97
2022-12-01T21:54:46.005Z,98597.88
2022-12-01T21:57:51.354Z,98564.06
2022-12-01T22:00:57.626Z,98592.84
2022-12-01T22:04:03.300Z,98595.38
2022-12-01T22:07:09.853Z,98591.63
2022-12-01T22:10:45.654Z,98587.72
2022-12-01T22:13:54.809Z,98588.31
2022-12-01T22:17:02.351Z,98583.38
2022-12-01T22:20:22.417Z,98591.94
2022-12-01T22:23:29.202Z,98581.66
2022-12-01T22:26:33.822Z,98581.69
2022-12-01T22:29:42.153Z,98577.41
2022-12-01T22:34:59.198Z,98575.88
2022-12-01T22:38:14.597Z,98576.53
2022-12-01T22:41:20.588Z,98575.75
2022-12-01T22:44:24.075Z,98568.72
2022-12-01T22:47:31.941Z,98571.34
2022-12-01T22:50:38.262Z,98568.91
2022-12-01T22:53:42.959Z,98567.63
2022-12-01T22:56:48.543Z,98561.06
2022-12-01T22:59:53.074Z,98562.50
2022-12-01T23:02:56.933Z,98543.03
2022-12-01T23:06:01.856Z,98554.09
2022-12-01T23:09:11.396Z,98557.22
2022-12-01T23:12:31.582Z,98521.97
2022-12-01T23:15:37.254Z,98557.44
2022-12-01T23:18:40.563Z,98540.56
2022-12-01T23:21:45.509Z,98547.34
2022-12-01T23:24:49.248Z,98544.59
2022-12-01T23:27:54.718Z,98545.78
2022-12-01T23:31:00.525Z,98544.63
2022-12-01T23:34:04.549Z,98540.59
2022-12-01T23:37:25.134Z,98542.81
2022-12-01T23:40:32.050Z,98531.91
2022-12-01T23:43:40.105Z,98534.56
2022-12-01T23:46:43.822Z,98532.22
2022-12-01T23:49:49.039Z,98536.41
2022-12-01T23:52:54.994Z,98538.97
2022-12-01T23:56:04.051Z,98523.72
2022-12-01T23:59:12.010Z,98525.66
